sensor_id;sensor_type;location;lat;lon;timestamp;P1;durP1;ratioP1;P2;durP2;ratioP2
51010;SDS011;37038;50.182;8.624;2024-03-02T00:02:58;21.20;;;14.35;;
51010;SDS011;37038;50.182;8.624;2024-03-02T00:06:08;16.42;;;13.60;;
51010;SDS011;37038;50.182;8.624;2024-03-02T00:09:09;16.08;;;14.38;;
51010;SDS011;37038;50.182;8.624;2024-03-02T00:12:11;17.23;;;14.23;;
51010;SDS011;37038;50.182;8.624;2024-03-02T00:18:39;17.02;;;12.98;;
51010;SDS011;37038;50.182;8.624;2024-03-02T00:24:36;17.00;;;13.95;;
51010;SDS011;37038;50.182;8.624;2024-03-02T00:27:36;18.60;;;14.13;;
51010;SDS011;37038;50.182;8.624;2024-03-02T00:30:51;19.10;;;14.05;;
51010;SDS011;37038;50.182;8.624;2024-03-02T00:34:01;18.25;;;12.95;;
51010;SDS011;37038;50.182;8.624;2024-03-02T00:37:02;17.20;;;13.70;;
51010;SDS011;37038;50.182;8.624;2024-03-02T00:39:54;16.35;;;14.68;;
51010;SDS011;37038;50.182;8.624;2024-03-02T00:42:50;18.83;;;14.70;;
51010;SDS011;37038;50.182;8.624;2024-03-02T00:45:42;16.15;;;13.57;;
51010;SDS011;37038;50.182;8.624;2024-03-02T00:48:33;20.08;;;15.80;;
51010;SDS011;37038;50.182;8.624;2024-03-02T00:51:28;22.67;;;15.90;;
51010;SDS011;37038;50.182;8.624;2024-03-02T00:54:29;20.42;;;16.10;;
51010;SDS011;37038;50.182;8.624;2024-03-02T00:57:35;17.30;;;13.13;;
51010;SDS011;37038;50.182;8.624;2024-03-02T01:00:35;17.85;;;13.85;;
51010;SDS011;37038;50.182;8.624;2024-03-02T01:03:37;17.75;;;13.90;;
51010;SDS011;37038;50.182;8.624;2024-03-02T01:06:51;23.63;;;16.55;;
51010;SDS011;37038;50.182;8.624;2024-03-02T01:09:55;20.52;;;16.05;;
51010;SDS011;37038;50.182;8.624;2024-03-02T01:12:46;24.73;;;17.33;;
51010;SDS011;37038;50.182;8.624;2024-03-02T01:15:56;20.55;;;15.80;;
51010;SDS011;37038;50.182;8.624;2024-03-02T01:18:56;20.70;;;15.73;;
51010;SDS011;37038;50.182;8.624;2024-03-02T01:21:55;18.55;;;14.85;;
51010;SDS011;37038;50.182;8.624;2024-03-02T01:25:00;21.02;;;15.73;;
51010;SDS011;37038;50.182;8.624;2024-03-02T01:28:23;20.42;;;16.48;;
51010;SDS011;37038;50.182;8.624;2024-03-02T01:31:39;21.67;;;16.33;;
51010;SDS011;37038;50.182;8.624;2024-03-02T01:34:46;19.90;;;16.10;;
51010;SDS011;37038;50.182;8.624;2024-03-02T01:37:45;22.42;;;15.75;;
51010;SDS011;37038;50.182;8.624;2024-03-02T01:40:34;22.15;;;15.75;;
51010;SDS011;37038;50.182;8.624;2024-03-02T01:43:35;20.58;;;15.30;;
51010;SDS011;37038;50.182;8.624;2024-03-02T01:46:28;19.98;;;15.45;;
51010;SDS011;37038;50.182;8.624;2024-03-02T01:49:29;19.13;;;14.75;;
51010;SDS011;37038;50.182;8.624;2024-03-02T01:52:40;21.92;;;15.63;;
51010;SDS011;37038;50.182;8.624;2024-03-02T01:55:44;19.52;;;15.77;;
51010;SDS011;37038;50.182;8.624;2024-03-02T01:58:53;21.00;;;15.68;;
51010;SDS011;37038;50.182;8.624;2024-03-02T02:01:51;22.77;;;16.67;;
51010;SDS011;37038;50.182;8.624;2024-03-02T02:04:58;22.55;;;16.30;;
51010;SDS011;37038;50.182;8.624;2024-03-02T02:08:05;20.95;;;16.73;;
51010;SDS011;37038;50.182;8.624;2024-03-02T02:14:29;21.83;;;16.42;;
51010;SDS011;37038;50.182;8.624;2024-03-02T02:17:31;23.92;;;16.90;;
51010;SDS011;37038;50.182;8.624;2024-03-02T02:20:42;23.63;;;16.80;;
51010;SDS011;37038;50.182;8.624;2024-03-02T02:23:55;21.67;;;16.17;;
51010;SDS011;37038;50.182;8.624;2024-03-02T02:26:47;23.35;;;16.33;;
51010;SDS011;37038;50.182;8.624;2024-03-02T02:29:42;21.92;;;16.38;;
51010;SDS011;37038;50.182;8.624;2024-03-02T02:33:00;26.95;;;17.60;;
51010;SDS011;37038;50.182;8.624;2024-03-02T02:36:07;28.75;;;20.67;;
51010;SDS011;37038;50.182;8.624;2024-03-02T02:39:04;28.75;;;20.95;;
51010;SDS011;37038;50.182;8.624;2024-03-02T02:42:36;30.00;;;21.02;;
51010;SDS011;37038;50.182;8.624;2024-03-02T02:45:35;33.55;;;21.98;;
51010;SDS011;37038;50.182;8.624;2024-03-02T02:48:31;34.50;;;22.45;;
51010;SDS011;37038;50.182;8.624;2024-03-02T02:51:36;28.52;;;20.50;;
51010;SDS011;37038;50.182;8.624;2024-03-02T02:55:11;32.08;;;20.45;;
51010;SDS011;37038;50.182;8.624;2024-03-02T02:58:12;28.45;;;20.08;;
51010;SDS011;37038;50.182;8.624;2024-03-02T03:01:20;32.90;;;20.40;;
51010;SDS011;37038;50.182;8.624;2024-03-02T03:07:41;32.03;;;21.40;;
51010;SDS011;37038;50.182;8.624;2024-03-02T03:10:57;31.50;;;22.42;;
51010;SDS011;37038;50.182;8.624;2024-03-02T03:14:22;37.17;;;23.95;;
51010;SDS011;37038;50.182;8.624;2024-03-02T03:17:25;30.60;;;21.05;;
51010;SDS011;37038;50.182;8.624;2024-03-02T03:20:44;40.88;;;23.60;;
51010;SDS011;37038;50.182;8.624;2024-03-02T03:23:42;32.78;;;22.58;;
51010;SDS011;37038;50.182;8.624;2024-03-02T03:26:39;35.35;;;22.75;;
51010;SDS011;37038;50.182;8.624;2024-03-02T03:29:59;37.90;;;25.25;;
51010;SDS011;37038;50.182;8.624;2024-03-02T03:32:58;38.42;;;24.95;;
51010;SDS011;37038;50.182;8.624;2024-03-02T03:36:07;39.25;;;26.88;;
51010;SDS011;37038;50.182;8.624;2024-03-02T03:42:59;41.55;;;26.30;;
51010;SDS011;37038;50.182;8.624;2024-03-02T03:45:57;39.90;;;26.38;;
51010;SDS011;37038;50.182;8.624;2024-03-02T03:48:56;42.03;;;27.30;;
51010;SDS011;37038;50.182;8.624;2024-03-02T03:52:05;45.10;;;26.00;;
51010;SDS011;37038;50.182;8.624;2024-03-02T03:55:11;42.17;;;26.10;;
51010;SDS011;37038;50.182;8.624;2024-03-02T03:58:30;46.85;;;28.08;;
51010;SDS011;37038;50.182;8.624;2024-03-02T04:01:28;50.17;;;29.42;;
51010;SDS011;37038;50.182;8.624;2024-03-02T04:04:50;44.63;;;28.20;;
51010;SDS011;37038;50.182;8.624;2024-03-02T04:11:19;50.13;;;29.95;;
51010;SDS011;37038;50.182;8.624;2024-03-02T04:14:33;55.72;;;32.60;;
51010;SDS011;37038;50.182;8.624;2024-03-02T04:17:51;55.22;;;32.70;;
51010;SDS011;37038;50.182;8.624;2024-03-02T04:20:50;48.03;;;30.70;;
51010;SDS011;37038;50.182;8.624;2024-03-02T04:23:53;57.15;;;33.55;;
51010;SDS011;37038;50.182;8.624;2024-03-02T04:27:15;62.28;;;33.92;;
51010;SDS011;37038;50.182;8.624;2024-03-02T04:30:03;60.95;;;34.03;;
51010;SDS011;37038;50.182;8.624;2024-03-02T04:37:57;56.88;;;34.70;;
51010;SDS011;37038;50.182;8.624;2024-03-02T04:41:36;54.22;;;31.95;;
51010;SDS011;37038;50.182;8.624;2024-03-02T04:51:05;72.05;;;37.75;;
51010;SDS011;37038;50.182;8.624;2024-03-02T04:54:11;68.97;;;37.60;;
51010;SDS011;37038;50.182;8.624;2024-03-02T04:57:23;65.10;;;37.42;;
51010;SDS011;37038;50.182;8.624;2024-03-02T05:00:42;73.70;;;40.70;;
51010;SDS011;37038;50.182;8.624;2024-03-02T05:03:54;60.78;;;34.10;;
51010;SDS011;37038;50.182;8.624;2024-03-02T05:07:04;72.78;;;35.85;;
51010;SDS011;37038;50.182;8.624;2024-03-02T05:10:09;69.05;;;37.33;;
51010;SDS011;37038;50.182;8.624;2024-03-02T05:13:41;68.90;;;37.42;;
51010;SDS011;37038;50.182;8.624;2024-03-02T05:16:54;67.82;;;35.90;;
51010;SDS011;37038;50.182;8.624;2024-03-02T05:20:10;59.70;;;33.08;;
51010;SDS011;37038;50.182;8.624;2024-03-02T05:23:25;68.15;;;36.35;;
51010;SDS011;37038;50.182;8.624;2024-03-02T05:29:46;69.00;;;37.60;;
51010;SDS011;37038;50.182;8.624;2024-03-02T05:33:14;88.05;;;41.45;;
51010;SDS011;37038;50.182;8.624;2024-03-02T05:36:21;80.00;;;41.00;;
51010;SDS011;37038;50.182;8.624;2024-03-02T05:39:46;80.88;;;42.97;;
51010;SDS011;37038;50.182;8.624;2024-03-02T05:47:04;98.43;;;48.97;;
51010;SDS011;37038;50.182;8.624;2024-03-02T05:55:11;84.07;;;42.63;;
51010;SDS011;37038;50.182;8.624;2024-03-02T06:02:47;81.60;;;42.13;;
51010;SDS011;37038;50.182;8.624;2024-03-02T06:06:06;90.05;;;42.75;;
51010;SDS011;37038;50.182;8.624;2024-03-02T06:08:56;76.25;;;43.53;;
51010;SDS011;37038;50.182;8.624;2024-03-02T06:11:54;90.88;;;47.83;;
51010;SDS011;37038;50.182;8.624;2024-03-02T06:14:58;93.43;;;47.42;;
51010;SDS011;37038;50.182;8.624;2024-03-02T06:17:56;81.53;;;44.25;;
51010;SDS011;37038;50.182;8.624;2024-03-02T06:20:51;80.15;;;46.08;;
51010;SDS011;37038;50.182;8.624;2024-03-02T06:23:44;85.20;;;46.83;;
51010;SDS011;37038;50.182;8.624;2024-03-02T06:26:52;83.57;;;45.85;;
51010;SDS011;37038;50.182;8.624;2024-03-02T06:30:07;69.85;;;42.08;;
51010;SDS011;37038;50.182;8.624;2024-03-02T06:33:04;88.25;;;46.50;;
51010;SDS011;37038;50.182;8.624;2024-03-02T06:35:56;84.55;;;46.42;;
51010;SDS011;37038;50.182;8.624;2024-03-02T06:38:44;75.47;;;44.30;;
51010;SDS011;37038;50.182;8.624;2024-03-02T06:41:39;75.85;;;43.28;;
51010;SDS011;37038;50.182;8.624;2024-03-02T06:44:35;73.68;;;42.00;;
51010;SDS011;37038;50.182;8.624;2024-03-02T06:47:32;61.53;;;39.95;;
51010;SDS011;37038;50.182;8.624;2024-03-02T06:50:23;71.35;;;42.08;;
51010;SDS011;37038;50.182;8.624;2024-03-02T06:53:20;83.30;;;44.13;;
51010;SDS011;37038;50.182;8.624;2024-03-02T06:56:12;56.50;;;37.10;;
51010;SDS011;37038;50.182;8.624;2024-03-02T06:59:16;62.60;;;39.67;;
51010;SDS011;37038;50.182;8.624;2024-03-02T07:02:07;69.57;;;39.80;;
51010;SDS011;37038;50.182;8.624;2024-03-02T07:14:10;66.85;;;39.70;;
51010;SDS011;37038;50.182;8.624;2024-03-02T07:17:37;55.08;;;33.63;;
51010;SDS011;37038;50.182;8.624;2024-03-02T07:20:26;64.05;;;37.15;;
51010;SDS011;37038;50.182;8.624;2024-03-02T07:23:23;73.10;;;39.53;;
51010;SDS011;37038;50.182;8.624;2024-03-02T07:26:21;66.43;;;36.85;;
51010;SDS011;37038;50.182;8.624;2024-03-02T07:29:18;66.95;;;38.40;;
51010;SDS011;37038;50.182;8.624;2024-03-02T07:32:17;62.72;;;37.72;;
51010;SDS011;37038;50.182;8.624;2024-03-02T07:35:12;67.40;;;38.10;;
51010;SDS011;37038;50.182;8.624;2024-03-02T07:38:04;66.15;;;39.28;;
51010;SDS011;37038;50.182;8.624;2024-03-02T07:40:55;53.53;;;34.85;;
51010;SDS011;37038;50.182;8.624;2024-03-02T07:44:11;57.90;;;35.97;;
51010;SDS011;37038;50.182;8.624;2024-03-02T07:47:08;52.75;;;33.35;;
51010;SDS011;37038;50.182;8.624;2024-03-02T07:50:07;49.17;;;32.65;;
51010;SDS011;37038;50.182;8.624;2024-03-02T07:52:56;39.53;;;28.45;;
51010;SDS011;37038;50.182;8.624;2024-03-02T07:55:44;38.85;;;28.27;;
51010;SDS011;37038;50.182;8.624;2024-03-02T07:58:38;34.78;;;26.98;;
51010;SDS011;37038;50.182;8.624;2024-03-02T08:01:30;37.83;;;29.40;;
51010;SDS011;37038;50.182;8.624;2024-03-02T08:04:19;31.02;;;25.73;;
51010;SDS011;37038;50.182;8.624;2024-03-02T08:07:10;29.13;;;24.23;;
51010;SDS011;37038;50.182;8.624;2024-03-02T08:10:03;29.33;;;22.83;;
51010;SDS011;37038;50.182;8.624;2024-03-02T08:13:01;30.00;;;24.90;;
51010;SDS011;37038;50.182;8.624;2024-03-02T08:15:52;28.92;;;23.33;;
51010;SDS011;37038;50.182;8.624;2024-03-02T08:18:43;25.52;;;20.50;;
51010;SDS011;37038;50.182;8.624;2024-03-02T08:21:31;23.02;;;20.58;;
51010;SDS011;37038;50.182;8.624;2024-03-02T08:24:25;25.85;;;20.60;;
51010;SDS011;37038;50.182;8.624;2024-03-02T08:27:15;22.90;;;20.38;;
51010;SDS011;37038;50.182;8.624;2024-03-02T08:30:09;29.05;;;22.38;;
51010;SDS011;37038;50.182;8.624;2024-03-02T08:32:58;25.95;;;21.10;;
51010;SDS011;37038;50.182;8.624;2024-03-02T08:35:53;23.75;;;20.98;;
51010;SDS011;37038;50.182;8.624;2024-03-02T08:38:51;27.42;;;21.60;;
51010;SDS011;37038;50.182;8.624;2024-03-02T08:41:49;24.58;;;20.77;;
51010;SDS011;37038;50.182;8.624;2024-03-02T08:44:43;25.75;;;20.38;;
51010;SDS011;37038;50.182;8.624;2024-03-02T08:47:36;28.42;;;22.23;;
51010;SDS011;37038;50.182;8.624;2024-03-02T08:50:30;27.15;;;22.00;;
51010;SDS011;37038;50.182;8.624;2024-03-02T08:53:27;28.95;;;22.98;;
51010;SDS011;37038;50.182;8.624;2024-03-02T08:56:27;27.95;;;21.73;;
51010;SDS011;37038;50.182;8.624;2024-03-02T08:59:24;27.17;;;21.48;;
51010;SDS011;37038;50.182;8.624;2024-03-02T09:02:17;25.55;;;20.50;;
51010;SDS011;37038;50.182;8.624;2024-03-02T09:05:18;24.10;;;21.10;;
51010;SDS011;37038;50.182;8.624;2024-03-02T09:08:09;25.92;;;21.83;;
51010;SDS011;37038;50.182;8.624;2024-03-02T09:10:57;24.90;;;21.33;;
51010;SDS011;37038;50.182;8.624;2024-03-02T09:13:46;27.73;;;21.33;;
51010;SDS011;37038;50.182;8.624;2024-03-02T09:16:37;27.15;;;20.70;;
51010;SDS011;37038;50.182;8.624;2024-03-02T09:19:38;24.40;;;21.25;;
51010;SDS011;37038;50.182;8.624;2024-03-02T09:22:40;24.20;;;20.77;;
51010;SDS011;37038;50.182;8.624;2024-03-02T09:25:39;23.48;;;20.50;;
51010;SDS011;37038;50.182;8.624;2024-03-02T09:28:32;24.17;;;19.60;;
51010;SDS011;37038;50.182;8.624;2024-03-02T09:31:38;23.70;;;19.40;;
51010;SDS011;37038;50.182;8.624;2024-03-02T09:34:51;25.05;;;19.85;;
51010;SDS011;37038;50.182;8.624;2024-03-02T09:54:56;24.40;;;19.17;;
51010;SDS011;37038;50.182;8.624;2024-03-02T09:58:52;22.17;;;18.27;;
51010;SDS011;37038;50.182;8.624;2024-03-02T10:06:30;23.33;;;19.73;;
51010;SDS011;37038;50.182;8.624;2024-03-02T10:09:44;22.73;;;18.83;;
51010;SDS011;37038;50.182;8.624;2024-03-02T10:13:06;21.55;;;18.90;;
51010;SDS011;37038;50.182;8.624;2024-03-02T10:16:42;20.27;;;18.17;;
51010;SDS011;37038;50.182;8.624;2024-03-02T11:14:58;14.07;;;11.63;;
51010;SDS011;37038;50.182;8.624;2024-03-02T11:18:44;14.43;;;12.95;;
51010;SDS011;37038;50.182;8.624;2024-03-02T11:24:31;14.05;;;12.55;;
51010;SDS011;37038;50.182;8.624;2024-03-02T11:28:12;14.65;;;12.93;;
51010;SDS011;37038;50.182;8.624;2024-03-02T11:35:07;14.60;;;12.88;;
51010;SDS011;37038;50.182;8.624;2024-03-02T11:38:38;13.77;;;12.15;;
51010;SDS011;37038;50.182;8.624;2024-03-02T11:41:54;13.70;;;11.63;;
51010;SDS011;37038;50.182;8.624;2024-03-02T11:45:12;15.18;;;12.05;;
51010;SDS011;37038;50.182;8.624;2024-03-02T11:52:09;14.70;;;12.00;;
51010;SDS011;37038;50.182;8.624;2024-03-02T11:55:20;13.30;;;12.00;;
51010;SDS011;37038;50.182;8.624;2024-03-02T11:58:46;12.75;;;11.48;;
51010;SDS011;37038;50.182;8.624;2024-03-02T12:01:46;12.60;;;11.23;;
51010;SDS011;37038;50.182;8.624;2024-03-02T12:04:48;11.07;;;9.95;;
51010;SDS011;37038;50.182;8.624;2024-03-02T12:08:08;11.43;;;10.25;;
51010;SDS011;37038;50.182;8.624;2024-03-02T12:11:41;11.90;;;9.68;;
51010;SDS011;37038;50.182;8.624;2024-03-02T12:15:37;11.40;;;10.25;;
51010;SDS011;37038;50.182;8.624;2024-03-02T12:18:32;10.40;;;9.32;;
51010;SDS011;37038;50.182;8.624;2024-03-02T12:21:45;10.65;;;9.52;;
51010;SDS011;37038;50.182;8.624;2024-03-02T12:25:14;12.00;;;10.80;;
51010;SDS011;37038;50.182;8.624;2024-03-02T12:28:49;9.90;;;8.90;;
51010;SDS011;37038;50.182;8.624;2024-03-02T12:47:20;9.02;;;8.23;;
51010;SDS011;37038;50.182;8.624;2024-03-02T12:50:46;8.98;;;8.05;;
51010;SDS011;37038;50.182;8.624;2024-03-02T12:53:54;9.00;;;8.10;;
51010;SDS011;37038;50.182;8.624;2024-03-02T12:56:51;8.82;;;8.02;;
51010;SDS011;37038;50.182;8.624;2024-03-02T13:00:21;9.48;;;8.57;;
51010;SDS011;37038;50.182;8.624;2024-03-02T13:03:41;7.95;;;7.15;;
51010;SDS011;37038;50.182;8.624;2024-03-02T13:07:04;8.50;;;7.70;;
51010;SDS011;37038;50.182;8.624;2024-03-02T13:10:08;9.52;;;7.30;;
51010;SDS011;37038;50.182;8.624;2024-03-02T13:13:08;9.05;;;7.78;;
51010;SDS011;37038;50.182;8.624;2024-03-02T13:16:09;8.18;;;7.47;;
51010;SDS011;37038;50.182;8.624;2024-03-02T13:19:13;9.15;;;8.23;;
51010;SDS011;37038;50.182;8.624;2024-03-02T13:22:28;9.35;;;7.43;;
51010;SDS011;37038;50.182;8.624;2024-03-02T13:26:14;8.50;;;7.60;;
51010;SDS011;37038;50.182;8.624;2024-03-02T13:36:34;7.82;;;7.10;;
51010;SDS011;37038;50.182;8.624;2024-03-02T13:43:59;8.32;;;7.53;;
51010;SDS011;37038;50.182;8.624;2024-03-02T13:47:43;7.65;;;6.85;;
51010;SDS011;37038;50.182;8.624;2024-03-02T13:51:29;7.10;;;6.50;;
51010;SDS011;37038;50.182;8.624;2024-03-02T13:54:46;7.30;;;6.60;;
51010;SDS011;37038;50.182;8.624;2024-03-02T13:58:15;7.18;;;6.47;;
51010;SDS011;37038;50.182;8.624;2024-03-02T14:01:24;6.20;;;5.65;;
51010;SDS011;37038;50.182;8.624;2024-03-02T14:04:31;6.78;;;5.40;;
51010;SDS011;37038;50.182;8.624;2024-03-02T14:07:43;6.22;;;5.50;;
51010;SDS011;37038;50.182;8.624;2024-03-02T14:11:23;6.70;;;5.93;;
51010;SDS011;37038;50.182;8.624;2024-03-02T14:14:28;5.00;;;4.28;;
51010;SDS011;37038;50.182;8.624;2024-03-02T14:17:37;4.65;;;4.20;;
51010;SDS011;37038;50.182;8.624;2024-03-02T14:20:42;5.05;;;4.43;;
51010;SDS011;37038;50.182;8.624;2024-03-02T14:24:06;5.10;;;4.50;;
51010;SDS011;37038;50.182;8.624;2024-03-02T15:19:15;8.73;;;6.10;;
51010;SDS011;37038;50.182;8.624;2024-03-02T16:28:52;5.80;;;5.15;;
51010;SDS011;37038;50.182;8.624;2024-03-02T16:32:42;7.22;;;5.55;;
51010;SDS011;37038;50.182;8.624;2024-03-02T16:39:53;7.72;;;5.13;;
51010;SDS011;37038;50.182;8.624;2024-03-02T16:48:04;6.18;;;4.93;;
51010;SDS011;37038;50.182;8.624;2024-03-02T16:51:52;8.13;;;5.68;;
51010;SDS011;37038;50.182;8.624;2024-03-02T17:04:06;10.43;;;7.30;;
51010;SDS011;37038;50.182;8.624;2024-03-02T17:07:36;7.38;;;6.68;;
51010;SDS011;37038;50.182;8.624;2024-03-02T17:16:13;8.38;;;7.10;;
51010;SDS011;37038;50.182;8.624;2024-03-02T17:19:53;10.45;;;7.82;;
51010;SDS011;37038;50.182;8.624;2024-03-02T17:27:36;12.65;;;8.55;;
51010;SDS011;37038;50.182;8.624;2024-03-02T17:35:21;9.73;;;7.82;;
51010;SDS011;37038;50.182;8.624;2024-03-02T17:38:58;11.30;;;7.50;;
51010;SDS011;37038;50.182;8.624;2024-03-02T17:42:23;10.00;;;7.78;;
51010;SDS011;37038;50.182;8.624;2024-03-02T18:50:56;12.10;;;10.10;;
51010;SDS011;37038;50.182;8.624;2024-03-02T18:58:08;10.13;;;9.07;;
51010;SDS011;37038;50.182;8.624;2024-03-02T19:02:28;12.27;;;10.50;;
51010;SDS011;37038;50.182;8.624;2024-03-02T19:06:12;11.50;;;10.13;;
51010;SDS011;37038;50.182;8.624;2024-03-02T20:40:15;15.60;;;11.27;;
51010;SDS011;37038;50.182;8.624;2024-03-02T20:48:35;16.13;;;13.07;;
51010;SDS011;37038;50.182;8.624;2024-03-02T20:52:05;16.73;;;12.23;;
51010;SDS011;37038;50.182;8.624;2024-03-02T20:55:52;19.80;;;14.50;;
51010;SDS011;37038;50.182;8.624;2024-03-02T20:59:42;17.15;;;13.23;;
51010;SDS011;37038;50.182;8.624;2024-03-02T23:01:51;26.67;;;19.10;;
51010;SDS011;37038;50.182;8.624;2024-03-02T23:05:48;26.63;;;19.52;;
51010;SDS011;37038;50.182;8.624;2024-03-02T23:22:09;25.58;;;18.10;;
